createdAt,value
2019-03-03T00:00:49.190Z,18.37
2019-03-03T00:03:17.990Z,18.50
2019-03-03T00:05:46.858Z,19.37
2019-03-03T00:08:15.754Z,16.80
2019-03-03T00:10:44.545Z,14.85
2019-03-03T00:13:13.484Z,18.75
2019-03-03T00:15:42.621Z,16.50
2019-03-03T00:18:11.414Z,12.25
2019-03-03T00:20:40.268Z,16.37
2019-03-03T00:23:09.261Z,13.05
2019-03-03T00:25:39.878Z,13.53
2019-03-03T00:28:09.106Z,17.48
2019-03-03T00:30:38.086Z,16.37
2019-03-03T00:33:06.977Z,16.20
2019-03-03T00:35:35.761Z,16.45
2019-03-03T00:38:23.684Z,15.75
2019-03-03T00:41:02.684Z,22.32
2019-03-03T00:43:49.755Z,15.25
2019-03-03T00:46:36.415Z,17.70
2019-03-03T00:49:24.397Z,21.07
2019-03-03T00:52:16.998Z,21.20
2019-03-03T00:55:03.835Z,18.05
2019-03-03T00:57:51.632Z,18.02
2019-03-03T01:00:34.589Z,13.85
2019-03-03T01:03:21.402Z,22.40
2019-03-03T01:05:56.115Z,17.20
2019-03-03T01:08:53.063Z,20.02
2019-03-03T01:11:40.027Z,15.83
2019-03-03T01:14:40.071Z,14.47
2019-03-03T01:17:25.880Z,14.00
2019-03-03T01:20:05.640Z,26.80
2019-03-03T01:22:41.584Z,15.95
2019-03-03T01:25:10.563Z,15.13
2019-03-03T01:27:39.342Z,13.55
2019-03-03T01:30:10.730Z,17.50
2019-03-03T01:32:39.561Z,16.97
2019-03-03T01:35:09.142Z,16.10
2019-03-03T01:37:38.046Z,16.65
2019-03-03T01:40:07.952Z,19.70
2019-03-03T01:42:36.745Z,20.62
2019-03-03T01:45:06.886Z,21.80
2019-03-03T01:47:35.853Z,18.77
2019-03-03T01:50:06.998Z,15.63
2019-03-03T01:52:35.808Z,13.05
2019-03-03T01:55:05.349Z,19.42
2019-03-03T01:57:34.165Z,22.32
2019-03-03T02:00:03.064Z,22.37
2019-03-03T02:02:32.036Z,17.30
2019-03-03T02:05:00.922Z,23.50
2019-03-03T02:07:29.727Z,16.37
2019-03-03T02:09:58.598Z,20.85
2019-03-03T02:12:27.401Z,19.12
2019-03-03T02:14:56.249Z,21.55
2019-03-03T02:17:25.059Z,21.12
2019-03-03T02:22:26.574Z,20.23
2019-03-03T02:24:55.390Z,17.87
2019-03-03T02:27:24.498Z,17.48
2019-03-03T02:29:53.388Z,20.45
2019-03-03T02:32:22.187Z,25.45
2019-03-03T02:34:51.076Z,21.30
2019-03-03T02:37:19.864Z,19.62
2019-03-03T02:39:48.746Z,15.28
2019-03-03T02:42:17.881Z,17.45
2019-03-03T02:44:46.811Z,18.62
2019-03-03T02:47:15.605Z,20.80
2019-03-03T02:49:44.853Z,14.78
2019-03-03T02:52:13.750Z,16.95
2019-03-03T02:54:42.566Z,17.85
2019-03-03T02:57:11.362Z,16.45
2019-03-03T02:59:40.198Z,13.80
2019-03-03T03:02:26.777Z,11.75
2019-03-03T03:04:55.932Z,15.18
2019-03-03T03:07:56.142Z,17.37
2019-03-03T03:10:47.897Z,7.12
2019-03-03T03:13:25.003Z,19.15
2019-03-03T03:15:58.932Z,11.12
2019-03-03T03:18:51.397Z,10.70
2019-03-03T03:21:33.754Z,8.00
2019-03-03T03:24:18.343Z,10.80
2019-03-03T03:27:21.333Z,11.97
2019-03-03T03:30:09.162Z,11.57
2019-03-03T03:32:43.819Z,8.15
2019-03-03T03:35:50.225Z,10.72
2019-03-03T03:38:23.641Z,11.33
2019-03-03T03:40:58.421Z,13.10
2019-03-03T03:43:46.029Z,8.28
2019-03-03T03:46:29.159Z,14.98
2019-03-03T03:49:13.727Z,5.55
2019-03-03T03:52:10.819Z,6.20
2019-03-03T03:55:01.745Z,9.38
2019-03-03T03:57:39.346Z,7.58
2019-03-03T04:00:28.732Z,10.08
2019-03-03T04:03:16.074Z,8.90
2019-03-03T04:06:13.264Z,12.50
2019-03-03T04:08:47.828Z,12.68
2019-03-03T04:11:41.892Z,8.33
2019-03-03T04:14:26.971Z,12.90
2019-03-03T04:17:24.000Z,9.68
2019-03-03T04:20:18.271Z,6.42
2019-03-03T04:23:01.269Z,8.15
2019-03-03T04:25:42.354Z,10.90
2019-03-03T04:28:23.186Z,12.37
2019-03-03T04:31:01.530Z,11.97
2019-03-03T04:33:48.658Z,14.90
2019-03-03T04:36:54.647Z,9.83
2019-03-03T04:39:32.893Z,8.63
2019-03-03T04:42:23.926Z,9.60
2019-03-03T04:45:06.313Z,10.23
2019-03-03T04:47:53.025Z,12.43
2019-03-03T04:50:27.847Z,9.75
2019-03-03T04:53:06.515Z,7.72
2019-03-03T04:56:00.955Z,7.85
2019-03-03T04:58:48.893Z,8.25
2019-03-03T05:01:49.537Z,10.93
2019-03-03T05:04:30.342Z,10.90
2019-03-03T05:07:16.413Z,10.18
2019-03-03T05:10:13.163Z,9.53
2019-03-03T05:13:06.761Z,10.58
2019-03-03T05:16:09.880Z,6.62
2019-03-03T05:18:49.843Z,6.17
2019-03-03T05:21:18.658Z,11.33
2019-03-03T05:23:47.501Z,12.28
2019-03-03T05:26:16.338Z,10.68
2019-03-03T05:28:45.516Z,12.15
2019-03-03T05:31:14.373Z,10.28
2019-03-03T05:33:43.155Z,8.73
2019-03-03T05:36:11.969Z,11.45
2019-03-03T05:38:40.748Z,15.10
2019-03-03T05:41:09.922Z,10.72
2019-03-03T05:43:38.719Z,11.05
2019-03-03T05:46:07.497Z,9.63
2019-03-03T05:48:36.320Z,10.30
2019-03-03T05:51:05.165Z,8.93
2019-03-03T05:53:34.026Z,12.50
2019-03-03T05:56:02.884Z,10.18
2019-03-03T05:58:31.690Z,14.75
2019-03-03T06:01:00.472Z,19.35
2019-03-03T06:03:29.599Z,12.75
2019-03-03T06:05:58.752Z,12.70
2019-03-03T06:08:27.544Z,18.52
2019-03-03T06:10:56.373Z,13.25
2019-03-03T06:13:25.237Z,12.60
2019-03-03T06:15:54.019Z,9.70
2019-03-03T06:18:22.846Z,13.18
2019-03-03T06:20:51.629Z,7.85
2019-03-03T06:23:20.530Z,14.35
2019-03-03T06:25:49.526Z,11.20
2019-03-03T06:28:18.317Z,9.78
2019-03-03T06:30:47.168Z,16.55
2019-03-03T06:33:15.959Z,13.75
2019-03-03T06:35:45.339Z,10.78
2019-03-03T06:38:14.162Z,11.57
2019-03-03T06:40:42.957Z,10.45
2019-03-03T06:43:11.735Z,9.08
2019-03-03T06:45:40.559Z,12.13
2019-03-03T06:48:09.345Z,13.08
2019-03-03T06:50:38.509Z,9.23
2019-03-03T06:53:07.653Z,8.43
2019-03-03T06:55:36.461Z,8.90
2019-03-03T06:58:05.246Z,17.60
2019-03-03T07:00:34.028Z,9.70
2019-03-03T07:03:02.922Z,14.33
2019-03-03T07:05:31.701Z,10.75
2019-03-03T07:08:00.537Z,14.87
2019-03-03T07:10:29.369Z,15.25
2019-03-03T07:13:06.767Z,9.83
2019-03-03T07:15:45.163Z,14.38
2019-03-03T07:18:14.275Z,14.63
2019-03-03T07:20:43.137Z,12.85
2019-03-03T07:23:11.953Z,13.43
2019-03-03T07:25:40.814Z,11.85
2019-03-03T07:28:09.639Z,12.35
2019-03-03T07:30:38.431Z,16.15
2019-03-03T07:33:25.216Z,16.10
2019-03-03T07:35:54.001Z,9.28
2019-03-03T07:38:22.794Z,16.60
2019-03-03T07:40:51.688Z,17.27
2019-03-03T07:43:20.468Z,12.45
2019-03-03T07:45:49.341Z,15.85
2019-03-03T07:48:18.229Z,19.30
2019-03-03T07:50:47.012Z,11.53
2019-03-03T07:53:15.897Z,18.10
2019-03-03T07:55:44.732Z,12.82
2019-03-03T07:58:13.512Z,13.88
2019-03-03T08:00:42.329Z,16.17
2019-03-03T08:03:11.187Z,11.22
2019-03-03T08:05:39.970Z,15.50
2019-03-03T08:08:08.863Z,13.13
2019-03-03T08:10:37.685Z,12.28
2019-03-03T08:13:09.434Z,9.78
2019-03-03T08:15:37.111Z,14.60
2019-03-03T08:18:06.051Z,18.00
2019-03-03T08:20:34.842Z,18.32
2019-03-03T08:23:03.698Z,15.48
2019-03-03T08:25:32.520Z,10.90
2019-03-03T08:28:01.353Z,16.65
2019-03-03T08:30:31.073Z,20.45
2019-03-03T08:33:00.099Z,12.23
2019-03-03T08:35:29.080Z,20.43
2019-03-03T08:37:57.891Z,17.05
2019-03-03T08:40:26.685Z,18.98
2019-03-03T08:43:17.054Z,13.68
2019-03-03T08:45:53.069Z,17.02
2019-03-03T08:48:59.270Z,15.98
2019-03-03T08:51:45.917Z,14.43
2019-03-03T08:54:49.073Z,17.85
2019-03-03T08:57:29.863Z,10.57
2019-03-03T09:00:06.048Z,14.85
2019-03-03T09:02:49.138Z,20.90
2019-03-03T09:05:48.999Z,15.25
2019-03-03T09:08:36.797Z,14.90
2019-03-03T09:11:25.072Z,20.35
2019-03-03T09:14:14.809Z,16.40
2019-03-03T09:17:07.109Z,19.00
2019-03-03T09:19:53.767Z,12.80
2019-03-03T09:22:31.591Z,14.43
2019-03-03T09:25:14.495Z,17.98
2019-03-03T09:28:08.422Z,15.10
2019-03-03T09:30:47.603Z,14.40
2019-03-03T09:33:34.254Z,18.40
2019-03-03T09:36:18.764Z,13.98
2019-03-03T09:39:00.988Z,13.62
2019-03-03T09:41:43.727Z,12.80
2019-03-03T09:44:32.228Z,11.65
2019-03-03T09:47:12.296Z,11.93
2019-03-03T09:49:59.522Z,18.62
2019-03-03T09:52:47.692Z,19.55
2019-03-03T09:55:26.199Z,12.13
2019-03-03T09:58:15.960Z,30.45
2019-03-03T10:01:03.074Z,10.05
2019-03-03T10:03:56.671Z,12.95
2019-03-03T10:06:47.651Z,7.70
2019-03-03T10:09:36.766Z,10.55
2019-03-03T10:12:14.925Z,10.80
2019-03-03T10:14:50.713Z,14.75
2019-03-03T10:17:39.234Z,8.78
2019-03-03T10:20:22.160Z,11.50
2019-03-03T10:23:21.491Z,11.35
2019-03-03T10:26:08.937Z,15.50
2019-03-03T10:28:56.959Z,10.43
2019-03-03T10:31:48.654Z,9.35
2019-03-03T10:34:25.895Z,11.50
2019-03-03T10:37:06.724Z,13.53
2019-03-03T10:39:40.986Z,11.22
2019-03-03T10:42:27.833Z,7.17
2019-03-03T10:45:03.220Z,7.55
2019-03-03T10:47:37.924Z,9.15
2019-03-03T10:50:23.217Z,9.08
2019-03-03T10:53:17.272Z,14.83
2019-03-03T10:56:12.339Z,5.67
2019-03-03T10:58:59.441Z,8.25
2019-03-03T11:01:46.147Z,9.88
2019-03-03T11:04:37.271Z,5.90
2019-03-03T11:07:13.416Z,10.03
2019-03-03T11:09:59.810Z,5.75
2019-03-03T11:12:40.381Z,8.58
2019-03-03T11:15:24.542Z,7.42
2019-03-03T11:18:13.996Z,6.87
2019-03-03T11:21:01.192Z,8.68
2019-03-03T11:23:52.021Z,8.15
2019-03-03T11:26:29.929Z,8.35
2019-03-03T11:29:31.017Z,5.30
2019-03-03T11:32:17.146Z,7.85
2019-03-03T11:34:59.773Z,6.17
2019-03-03T11:37:47.193Z,36.00
2019-03-03T11:40:32.198Z,23.02
2019-03-03T11:43:20.639Z,11.83
2019-03-03T11:46:13.459Z,10.40
2019-03-03T11:48:55.717Z,8.30
2019-03-03T11:51:50.359Z,5.12
2019-03-03T11:54:33.835Z,6.35
2019-03-03T12:00:10.015Z,11.25
2019-03-03T12:02:53.961Z,6.90
2019-03-03T12:05:41.181Z,4.97
2019-03-03T12:08:29.084Z,5.83
2019-03-03T12:11:15.611Z,7.97
2019-03-03T12:14:04.269Z,4.53
2019-03-03T12:16:47.286Z,5.47
2019-03-03T12:19:45.004Z,3.25
2019-03-03T12:22:38.992Z,5.72
2019-03-03T12:25:31.080Z,3.92
2019-03-03T12:28:09.193Z,3.60
2019-03-03T12:31:01.942Z,3.40
2019-03-03T12:33:43.551Z,6.83
2019-03-03T12:36:37.398Z,2.77
2019-03-03T12:42:16.977Z,3.42
2019-03-03T12:44:54.976Z,3.12
2019-03-03T12:47:36.646Z,3.37
2019-03-03T12:50:24.029Z,2.17
2019-03-03T12:53:16.155Z,2.33
2019-03-03T12:56:03.507Z,3.62
2019-03-03T12:58:39.124Z,4.80
2019-03-03T13:01:26.101Z,2.40
2019-03-03T13:04:12.840Z,1.92
2019-03-03T13:07:07.648Z,3.12
2019-03-03T13:10:00.796Z,2.25
2019-03-03T13:12:44.399Z,3.70
2019-03-03T13:18:15.397Z,2.58
2019-03-03T13:20:54.651Z,3.92
2019-03-03T13:23:29.329Z,2.58
2019-03-03T13:26:20.409Z,1.92
2019-03-03T13:29:03.979Z,2.37
